Terminal Aerodrome Forecast
Issued by NWS

Home | Current Version | Previous Version | Text Only | Print | Product List | Glossary On
Versions: 1 2 3 4 5 6 7 8 9 10 11 12 13 14 15 16 17 18 19 20 21
000
FTUS42 KKEY 221120
TAFMTH
TAF
KMTH 221120Z 2212/2312 17010G15KT P6SM VCSH SCT028 BKN035 OVC110
     FM221300 20016G22KT 2SM SHRA VCTS SCT015CB BKN035 BKN110
     FM221900 24013G18KT P6SM VCSH SCT025 BKN050 OVC100
     FM230300 28007G14KT P6SM SCT030 BKN110=

USA.gov is the U.S. government's official web portal to all federal, state and local government web resources and services.